»·PEaware :: N923A L52-L88

N923A :: L52-L88

FLIGHT INFORMATION

Flight Status: Arrived
Operator: Privately registered:
United States
More flights under this callsign
Pilot: Padraig S. (14196)
Aircraft: CESSNA 172 SKYHAWK
(C172)
More flights by this aircraft type
Origin: L52 Oceano Co
United States
Destination: L88 New Cuyama
United States
More flights between these airports :: More routes between these airports
Route: FLW
File this flight plan on PilotEdge
Remarks: CAT-01
Altitude:
(Current/Filed)
5,500ft
Speed:
(Current/Filed)
105kts
Departed: 29-Jan-19 12:02 PM
Arrived: 29-Jan-19 01:06 PM
Distance/Time
Traveled:
47nm/1:04
Distance/Time
To Go:
Arrived

Flight Plot

Page will automatically refresh every two minutes.


Map Options




Map Legend


Flown Route
Filed Route
Departure Airport
Arrival Airport
Navaid (VOR, NDB)
Fix

Horizontal Profiles

Position Reports

Time Latitude Longitude Heading Altitude Ground
Speed
29-Jan-19 11:56 35.103054 -120.624257 116 18ft 9kts
29-Jan-19 11:57 35.100986 -120.622308 119 18ft 18kts
29-Jan-19 11:58 35.099454 -120.619590 322 18ft 0kts
29-Jan-19 11:59 35.099455 -120.619591 321 18ft 0kts
29-Jan-19 12:00 35.099634 -120.619441 60 18ft 7kts
29-Jan-19 12:01 35.105048 -120.628298 305 367ft 64kts
29-Jan-19 12:02 35.112787 -120.613899 93 1141ft 100kts
29-Jan-19 12:03 35.118888 -120.577595 67 1329ft 109kts
29-Jan-19 12:04 35.128358 -120.542700 81 1404ft 110kts
29-Jan-19 12:05 35.130403 -120.507091 85 1906ft 100kts
29-Jan-19 12:06 35.129497 -120.473020 89 2553ft 101kts
29-Jan-19 12:07 35.135645 -120.437762 0 2698ft 90kts
29-Jan-19 12:08 35.137828 -120.464427 259 2757ft 103kts
29-Jan-19 12:09 35.130163 -120.500305 250 2286ft 115kts
29-Jan-19 12:10 35.115932 -120.535428 243 1484ft 112kts
29-Jan-19 12:11 35.102439 -120.567724 247 942ft 101kts
29-Jan-19 12:12 35.091310 -120.597096 259 609ft 93kts
29-Jan-19 12:13 35.098706 -120.617047 303 84ft 52kts
29-Jan-19 12:14 35.102362 -120.622942 302 18ft 10kts
29-Jan-19 12:15 35.103304 -120.624568 212 18ft 0kts
29-Jan-19 12:16 35.103304 -120.624568 212 18ft 0kts
29-Jan-19 12:17 35.103304 -120.624568 212 18ft 0kts
29-Jan-19 12:18 35.103304 -120.624568 212 18ft 0kts
29-Jan-19 12:19 35.103304 -120.624568 212 18ft 0kts
29-Jan-19 12:20 35.103304 -120.624568 212 18ft 0kts
29-Jan-19 12:21 35.103304 -120.624568 212 18ft 0kts
29-Jan-19 12:22 35.103304 -120.624568 212 18ft 0kts
29-Jan-19 12:23 35.103304 -120.624568 212 18ft 0kts
29-Jan-19 12:24 35.103304 -120.624568 212 18ft 0kts
29-Jan-19 12:25 35.103304 -120.624568 212 18ft 0kts
29-Jan-19 12:26 35.103304 -120.624568 212 18ft 0kts
29-Jan-19 12:27 35.103304 -120.624568 212 18ft 0kts
29-Jan-19 12:28 35.103304 -120.624568 212 18ft 0kts
29-Jan-19 12:29 35.103304 -120.624568 212 18ft 0kts
29-Jan-19 12:30 35.103304 -120.624568 212 18ft 0kts
29-Jan-19 12:31 35.103301 -120.624570 208 18ft 0kts
29-Jan-19 12:32 35.103271 -120.624578 176 18ft 1kts
29-Jan-19 12:33 35.102057 -120.624297 132 18ft 5kts
29-Jan-19 12:34 35.100032 -120.620480 121 18ft 17kts
29-Jan-19 12:35 35.099449 -120.619508 335 18ft 0kts
29-Jan-19 12:36 35.101017 -120.621358 304 29ft 55kts
29-Jan-19 12:37 35.111338 -120.619198 100 826ft 92kts
29-Jan-19 12:38 35.105744 -120.588109 94 1719ft 94kts
29-Jan-19 12:39 35.102091 -120.556232 92 2559ft 96kts
29-Jan-19 12:40 35.098590 -120.523548 82 3344ft 97kts
29-Jan-19 12:41 35.098517 -120.490834 83 4170ft 99kts
29-Jan-19 12:42 35.096802 -120.457700 98 4975ft 99kts
29-Jan-19 12:43 35.096457 -120.423660 80 5556ft 113kts
29-Jan-19 12:44 35.099088 -120.381413 81 5637ft 130kts
29-Jan-19 12:45 35.099027 -120.340142 88 5633ft 120kts
29-Jan-19 12:46 35.098518 -120.299323 88 5633ft 120kts
29-Jan-19 12:47 35.098069 -120.258282 88 5633ft 120kts
29-Jan-19 12:48 35.097613 -120.217539 88 5633ft 120kts
29-Jan-19 12:49 35.097141 -120.176608 88 5633ft 120kts
29-Jan-19 12:50 35.096658 -120.135874 88 5634ft 120kts
29-Jan-19 12:51 35.091648 -120.095478 101 5634ft 121kts
29-Jan-19 12:52 35.077715 -120.058099 114 5634ft 121kts
29-Jan-19 12:53 35.063851 -120.020625 114 5634ft 121kts
29-Jan-19 12:54 35.049981 -119.982949 114 5634ft 121kts
29-Jan-19 12:55 35.035847 -119.944617 114 5305ft 126kts
29-Jan-19 12:56 35.019802 -119.906427 135 4795ft 127kts
29-Jan-19 12:57 34.994752 -119.877596 132 4449ft 125kts
29-Jan-19 12:58 34.974404 -119.845077 127 4438ft 120kts
29-Jan-19 12:59 34.955913 -119.810987 119 4385ft 120kts
29-Jan-19 13:00 34.939996 -119.775042 113 4330ft 121kts
29-Jan-19 13:01 34.935547 -119.732686 92 3585ft 130kts
29-Jan-19 13:02 34.932242 -119.694657 111 2979ft 94kts
29-Jan-19 13:04 34.925951 -119.668104 26 2707ft 67kts
29-Jan-19 13:05 34.936289 -119.676593 295 2305ft 54kts
29-Jan-19 13:06 34.940431 -119.686759 296 2169ft 28kts
29-Jan-19 13:07 34.942694 -119.690886 67 2153ft 2kts
29-Jan-19 13:08 34.942752 -119.690816 33 2153ft 0kts
29-Jan-19 13:09 34.942752 -119.690816 33 2153ft 0kts
29-Jan-19 13:10 34.942752 -119.690816 33 2153ft 0kts
29-Jan-19 13:11 34.942752 -119.690816 33 2153ft 0kts
29-Jan-19 13:12 34.942752 -119.690816 33 2153ft 0kts
29-Jan-19 13:13 34.942752 -119.690816 33 2153ft 0kts
29-Jan-19 13:14 34.942752 -119.690816 33 2153ft 0kts
29-Jan-19 13:15 34.942752 -119.690816 33 2153ft 0kts
29-Jan-19 13:16 34.942752 -119.690816 33 2153ft 0kts
29-Jan-19 13:17 34.942752 -119.690816 33 2153ft 0kts

Navigation Log

Ident Type
Flight plan parsing failed, navigation log unavailable